Samnorwood, Texas
Current Conditions -  °F | °C
As of 12:14 AM on Thursday 23 Oct 2014 (Local Time) from KCDS Reporting Station
Haze Haze  
Wind Chill: 61°   Ceiling: 5500
Heat Index: 61°   Visibility: 4mi
Dew Point: 60°   Wind: 6mph
Humidity: 97%   Direction: 170°S
Pressure: 30.13"   Gusts: NA
Location:  35.05°N, 100.28°W
Report Text: KCDS 230514Z AUTO 17005KT 4SM BR SCT003 OVC055 16/16 A3013 RMK AO2 T01610156
Loading
Personal Weather Stations






























Interactive Weather Map
Tropical Storm Tracking
New forecast layout! Learn more

10-Day Weather Forecast

Advertisements
Track Severe Weather on mobile